Malahat, Canada
Current Conditions -  °F | °C
As of 1:00 AM on Wednesday 28 Jan 2015 (Local Time) from CYYJ Reporting Station
Broken Clouds Broken Clouds  
Wind Chill: 37°   Ceiling: 4100
Heat Index: 41°   Visibility: 30mi
Dew Point: 39°   Wind: 6mph
Humidity: 93%   Direction: 260°W
Pressure: 30.29"   Gusts: NA
Location:  48.56°N, 123.56°W
Report Text: CYYJ 280900Z 26005KT 30SM SCT030 BKN041 05/04 A3029 RMK SC3SC2 SLP257
Loading
Personal Weather Stations






























Interactive Weather Map New forecast layout! Learn more

10-Day Weather Forecast

Advertisements
Track Severe Weather on mobile